< < Back
Terminal Aerodrome Forecast


Current Version              Previous Versions:   1  2  3  4  5  6  7  8  9  

Terminal Aerodrome Forecast

071
FTUS42 KFFC 251417 AAA
TAFCSG
TAF AMD
KCSG 251417Z 2514/2612 11006KT P6SM SCT025 BKN070
      TEMPO 2514/2516 BKN025
     FM251600 13005KT P6SM VCSH BKN045
     FM252100 14009KT 6SM -SHRA BKN045
      TEMPO 2521/2524 3SM -TSRA BKN012CB
     FM260100 14007KT P6SM SCT025 BKN040
     FM260800 15006KT P6SM BKN009=

Latest METAR

541
SAUS70 KWBC 251500
MTRCSG
METAR KCSG 251451Z 15008KT 10SM BKN020 OVC100 24/19 A3023 RMK AO2
RAB23E33 SLP232 P0000 60000 T02440194 50002


USA.gov is the U.S. government's official web portal to all federal, state and local government web resources and services.